Terminal Aerodrome Forecast
Issued by NWS Dallas/Fort Worth, TX

Home | Current Version | Previous Version | Text Only | Print | Product List | Glossary On
Versions: 1 2 3 4 5 6 7 8 9 10 11 12 13 14 15 16 17 18 19 20 21 22 23 24 25 26 27 28 29 30 31 32 33 34 35 36 37 38 39 40 41 42
000
FTUS44 KFWD 030028 AAA
TAFDFW
TAF AMD
KDFW 030028Z 0300/0406 06003KT 3SM BR OVC006
      TEMPO 0301/0305 1SM BR OVC004
     FM030500 12004KT 1SM BR OVC003
     FM031100 17006KT 2SM -DZ BR OVC005 WS015/21050KT
     FM031500 19013KT 5SM BR OVC008
     FM032100 17010KT 6SM -SHRA BR OVC012=

USA.gov is the U.S. government's official web portal to all federal, state and local government web resources and services.